Time;durP1;ratioP1;P1;durP2;ratioP2;P2;SDS_P1;SDS_P2;PMS_P1;PMS_P2;Temp;Humidity;BMP_temperature;BMP_pressure;BME280_temperature;BME280_humidity;BME280_pressure;Samples;Min_cycle;Max_cycle;Signal;HPM_P1;HPM_P2
2022/07/14 00:00:11;;;;;;;0.88;0.88;;;;;;;22.36;89.01;151658.66;5092499;28;20184;-60
2022/07/14 00:02:40;;;;;;;4.55;0.75;;;;;;;22.32;90.54;151649.69;5092316;28;20672;-60
2022/07/14 00:05:07;;;;;;;2.90;0.82;;;;;;;21.88;94.54;151538.75;5092511;28;20655;-61
2022/07/14 00:07:34;;;;;;;4.72;0.90;;;;;;;21.95;94.74;151556.63;5091921;28;20184;-60
2022/07/14 00:10:04;;;;;;;1.13;0.82;;;;;;;22.00;98.99;151569.38;5091754;28;20234;-60
2022/07/14 00:12:31;;;;;;;2.15;1.02;;;;;;;21.97;89.10;151560.47;5090822;28;20192;-60
2022/07/14 00:14:58;;;;;;;1.38;1.27;;;;;;;21.85;94.05;151531.09;5092278;28;20188;-60
2022/07/14 00:17:25;;;;;;;2.63;1.33;;;;;;;21.74;96.88;151503.03;5092072;28;20188;-60
2022/07/14 00:19:53;;;;;;;3.38;1.52;;;;;;;21.59;100.00;151464.81;5092264;28;20180;-60
2022/07/14 00:22:20;;;;;;;9.15;2.80;;;;;;;21.47;100.00;151434.25;5091908;28;20188;-60
2022/07/14 00:24:48;;;;;;;12.00;3.53;;;;;;;21.36;100.00;151408.72;5091778;28;20192;-60
2022/07/14 00:27:15;;;;;;;10.25;3.17;;;;;;;21.25;100.00;151380.72;5092246;28;20188;-60
2022/07/14 00:29:42;;;;;;;6.90;3.05;;;;;;;21.22;100.00;151373.03;5092179;28;20610;-60
2022/07/14 00:32:09;;;;;;;6.95;3.30;;;;;;;21.26;100.00;151382.00;5092059;28;20626;-60
2022/07/14 00:34:36;;;;;;;5.47;2.47;;;;;;;21.26;100.00;151383.22;5090852;28;20551;-60
2022/07/14 00:37:04;;;;;;;9.90;2.97;;;;;;;21.23;100.00;151375.59;5091435;28;20190;-61
2022/07/14 00:39:54;;;;;;;6.18;1.83;;;;;;;21.28;100.00;151388.34;5092007;28;20189;-61
2022/07/14 00:42:33;;;;;;;2.80;1.42;;;;;;;21.28;100.00;151388.34;5091677;28;20638;-60
2022/07/14 00:45:01;;;;;;;1.67;1.20;;;;;;;21.28;100.00;151388.34;5091780;28;20224;-60
2022/07/14 00:47:28;;;;;;;7.18;0.90;;;;;;;21.26;100.00;151383.22;5091927;28;20184;-60
2022/07/14 00:49:56;;;;;;;4.25;1.52;;;;;;;21.26;100.00;151382.00;5091431;28;20204;-60
2022/07/14 00:52:26;;;;;;;2.50;1.20;;;;;;;21.04;100.00;151325.88;5091696;28;20187;-61
2022/07/14 00:54:54;;;;;;;2.78;1.30;;;;;;;21.11;100.00;151344.97;5091529;28;20195;-61
2022/07/14 00:57:22;;;;;;;2.63;0.93;;;;;;;21.08;100.00;151336.06;5091804;28;20195;-60
2022/07/14 00:59:49;;;;;;;1.13;1.02;;;;;;;21.16;100.00;151356.50;5091394;28;20188;-59
2022/07/14 01:02:17;;;;;;;5.50;1.15;;;;;;;21.11;100.00;151344.97;5091392;28;20199;-61
2022/07/14 01:04:45;;;;;;;2.00;0.90;;;;;;;21.12;100.00;151347.59;5091432;28;20191;-60
2022/07/14 01:07:12;;;;;;;2.35;1.00;;;;;;;21.07;100.00;151334.78;5091639;28;20184;-60
2022/07/14 01:09:40;;;;;;;3.35;1.27;;;;;;;21.10;100.00;151342.41;5091602;28;20227;-61
2022/07/14 01:12:08;;;;;;;1.27;1.17;;;;;;;21.09;100.00;151339.84;5091656;28;20188;-60
2022/07/14 01:14:36;;;;;;;1.90;1.50;;;;;;;21.02;100.00;151322.03;5091378;28;20223;-61
2022/07/14 01:17:04;;;;;;;10.88;2.47;;;;;;;20.97;100.00;151309.28;5091278;28;20237;-60
2022/07/14 01:19:31;;;;;;;3.00;2.28;;;;;;;20.97;100.00;151309.28;5091579;28;20539;-60
2022/07/14 01:22:00;;;;;;;5.78;2.33;;;;;;;20.92;100.00;151297.81;5091594;28;20551;-59
2022/07/14 01:24:28;;;;;;;4.63;1.85;;;;;;;20.93;100.00;151300.38;5091508;28;20626;-60
2022/07/14 01:26:55;;;;;;;2.97;1.50;;;;;;;20.88;100.00;151287.63;5091135;28;20181;-59
2022/07/14 01:29:23;;;;;;;2.75;1.60;;;;;;;20.88;100.00;151286.34;5091183;28;20191;-60
2022/07/14 01:31:50;;;;;;;5.13;1.73;;;;;;;20.82;100.00;151271.09;5091434;28;20555;-60
2022/07/14 01:34:17;;;;;;;5.57;2.10;;;;;;;20.63;100.00;151222.66;5091225;28;20191;-60
2022/07/14 01:36:45;;;;;;;6.53;2.03;;;;;;;20.74;100.00;151250.72;5091378;28;20354;-60
2022/07/14 01:39:13;;;;;;;3.72;2.13;;;;;;;20.87;100.00;151283.84;5091438;28;20192;-60
2022/07/14 01:41:40;;;;;;;3.60;3.30;;;;;;;20.95;100.00;151304.22;5091366;28;20611;-60
2022/07/14 01:44:07;;;;;;;7.78;3.55;;;;;;;20.94;100.00;151301.66;5091417;28;20184;-60
2022/07/14 01:46:37;;;;;;;12.98;4.32;;;;;;;21.07;100.00;151334.78;5091038;28;20184;-60
2022/07/14 01:49:04;;;;;;;5.47;4.60;;;;;;;21.02;100.00;151320.75;5093939;28;20188;-60
2022/07/14 01:51:31;;;;;;;8.65;4.82;;;;;;;21.01;100.00;151319.47;5094712;28;20253;-60
2022/07/14 01:53:58;;;;;;;11.10;4.78;;;;;;;20.95;100.00;151304.22;5094925;28;20575;-60
2022/07/14 01:56:26;;;;;;;9.25;4.15;;;;;;;20.97;100.00;151309.28;5094477;28;20202;-60
2022/07/14 01:58:53;;;;;;;14.02;7.43;;;;;;;21.01;100.00;151319.47;5094416;28;20194;-60
2022/07/14 02:04:04;;;;;;;15.73;8.40;;;;;;;20.93;100.00;151299.09;5094894;28;20180;-60
2022/07/14 02:06:32;;;;;;;15.82;8.68;;;;;;;20.87;100.00;151283.84;5094634;28;20252;-60
2022/07/14 02:08:59;;;;;;;12.00;8.63;;;;;;;20.60;100.00;151215.03;5094675;28;20551;-61
2022/07/14 02:14:12;;;;;;;20.17;8.15;;;;;;;20.75;100.00;151253.28;5094753;28;20176;-61
2022/07/14 02:16:39;;;;;;;12.30;6.95;;;;;;;20.75;100.00;151253.28;5094270;28;20184;-60
2022/07/14 02:19:07;;;;;;;10.98;8.45;;;;;;;20.73;100.00;151248.16;5094147;28;20184;-61
2022/07/14 02:21:33;;;;;;;13.60;8.20;;;;;;;20.61;100.00;151217.59;5094446;28;20559;-60
2022/07/14 02:24:00;;;;;;;11.52;7.53;;;;;;;20.62;100.00;151220.16;5094377;28;20184;-60
2022/07/14 02:26:28;;;;;;;16.65;8.25;;;;;;;20.62;100.00;151220.16;5094161;28;20191;-60
2022/07/14 02:28:55;;;;;;;10.93;8.07;;;;;;;20.61;100.00;151217.59;5094115;28;20191;-60
2022/07/14 02:31:22;;;;;;;9.40;7.57;;;;;;;20.52;100.00;151195.94;5094216;28;20204;-60
2022/07/14 02:33:49;;;;;;;15.60;8.75;;;;;;;20.50;100.00;151190.81;5093865;28;20184;-59
2022/07/14 02:36:16;;;;;;;23.10;8.57;;;;;;;20.47;100.00;151183.19;5093877;28;20180;-60
2022/07/14 02:38:44;;;;;;;19.92;8.57;;;;;;;20.23;100.00;151122.03;5094006;28;20669;-60
2022/07/14 02:41:11;;;;;;;9.68;8.93;;;;;;;20.35;100.00;151153.91;5094013;28;20573;-60
2022/07/14 02:43:39;;;;;;;9.23;8.38;;;;;;;20.18;100.00;151110.59;5093609;28;20188;-61
2022/07/14 02:46:07;;;;;;;14.25;8.20;;;;;;;20.08;100.00;151085.09;5093713;28;20180;-60
2022/07/14 02:48:33;;;;;;;18.08;9.38;;;;;;;20.00;100.00;151064.72;5093484;28;20188;-60
2022/07/14 02:51:02;;;;;;;17.53;9.53;;;;;;;19.96;100.00;151054.56;5093433;28;20207;-61
2022/07/14 02:53:29;;;;;;;10.27;9.40;;;;;;;19.83;100.00;151021.44;5093542;28;20200;-61
2022/07/14 02:55:56;;;;;;;18.75;11.30;;;;;;;19.64;100.00;150973.09;5093758;28;20191;-60
2022/07/14 02:58:23;;;;;;;30.10;11.87;;;;;;;19.71;100.00;150992.19;5092922;28;20191;-60
2022/07/14 03:00:52;;;;;;;16.30;10.97;;;;;;;19.65;100.00;150975.66;5093286;28;20663;-59
2022/07/14 03:03:19;;;;;;;20.83;12.20;;;;;;;19.45;100.00;150927.28;5093537;28;20188;-60
2022/07/14 03:05:46;;;;;;;17.73;12.27;;;;;;;19.43;100.00;150920.94;5093398;28;20192;-60
2022/07/14 03:08:13;;;;;;;20.13;12.33;;;;;;;19.27;100.00;150881.41;5093325;28;20185;-59
2022/07/14 03:10:40;;;;;;;17.17;12.97;;;;;;;19.28;100.00;150883.97;5093101;28;20597;-61
2022/07/14 03:13:07;;;;;;;19.87;12.20;;;;;;;19.39;100.00;150911.94;5093502;28;20210;-61
2022/07/14 03:15:34;;;;;;;24.70;12.53;;;;;;;19.43;100.00;150920.94;5093056;28;20188;-61
2022/07/14 03:18:03;;;;;;;21.58;12.18;;;;;;;19.50;100.00;150940.00;5093415;28;20195;-60
2022/07/14 03:20:30;;;;;;;17.83;11.93;;;;;;;19.81;100.00;151017.66;5093231;28;20184;-60
2022/07/14 03:22:57;;;;;;;21.63;12.82;;;;;;;20.62;100.00;151221.44;5093048;28;20258;-60
2022/07/14 03:25:24;;;;;;;20.50;11.80;;;;;;;21.47;100.00;151435.53;5093158;28;20188;-61
2022/07/14 03:27:51;;;;;;;22.20;11.57;;;;;;;22.39;100.00;151666.28;5093101;28;20188;-60
2022/07/14 03:30:17;;;;;;;18.05;11.23;;;;;;;22.93;100.00;151804.06;5092838;28;20184;-60
2022/07/14 03:32:44;;;;;;;17.23;10.52;;;;;;;23.52;97.76;151952.13;5092648;28;20193;-61
2022/07/14 03:35:13;;;;;;;20.95;9.88;;;;;;;23.38;93.08;151917.59;5093002;28;20204;-60
2022/07/14 03:37:40;;;;;;;10.13;8.73;;;;;;;22.92;94.96;151801.50;5093005;28;20533;-61
2022/07/14 03:40:08;;;;;;;11.13;7.82;;;;;;;22.67;97.84;151737.69;5092602;28;20191;-60
2022/07/14 03:42:35;;;;;;;19.45;8.60;;;;;;;22.57;98.33;151713.50;5092585;28;20183;-61
2022/07/14 03:45:02;;;;;;;16.20;7.53;;;;;;;22.68;97.56;151741.53;5092866;28;20292;-60
2022/07/14 03:47:29;;;;;;;11.15;7.32;;;;;;;22.66;99.18;151735.16;5092758;28;20188;-60
2022/07/14 03:49:56;;;;;;;9.40;6.90;;;;;;;22.75;99.45;151758.13;5092554;28;20200;-60
2022/07/14 03:52:24;;;;;;;9.60;6.93;;;;;;;22.75;98.75;151758.13;5092373;28;20216;-60
2022/07/14 03:54:51;;;;;;;13.20;6.28;;;;;;;22.59;99.62;151717.28;5092513;28;20562;-60
2022/07/14 03:57:18;;;;;;;9.05;5.63;;;;;;;22.84;96.10;151779.81;5092307;28;20203;-60
2022/07/14 03:59:45;;;;;;;14.05;5.93;;;;;;;22.88;93.88;151791.31;5092202;28;20188;-60
2022/07/14 04:02:12;;;;;;;10.30;5.38;;;;;;;22.87;97.46;151788.78;5092688;28;20188;-61
2022/07/14 04:04:40;;;;;;;11.68;5.57;;;;;;;22.84;98.82;151781.09;5092121;28;20180;-60
2022/07/14 04:07:07;;;;;;;11.98;5.38;;;;;;;23.02;97.22;151827.03;5092380;28;20184;-61
2022/07/14 04:09:35;;;;;;;11.85;5.63;;;;;;;23.22;96.21;151878.06;5091889;28;20196;-60
2022/07/14 04:12:02;;;;;;;11.63;4.85;;;;;;;23.37;93.51;151913.81;5091608;28;20208;-60
2022/07/14 04:14:29;;;;;;;6.97;4.85;;;;;;;23.33;93.28;151903.59;5092382;28;20586;-61
2022/07/14 04:16:57;;;;;;;9.68;5.00;;;;;;;23.48;92.96;151941.91;5092109;28;20207;-61
2022/07/14 04:19:24;;;;;;;6.18;5.50;;;;;;;23.65;93.30;151985.31;5091134;28;20565;-57
2022/07/14 04:21:51;;;;;;;11.00;5.13;;;;;;;23.66;94.76;151989.16;5092313;28;20191;-61
2022/07/14 04:24:18;;;;;;;8.25;5.50;;;;;;;23.81;94.40;152026.13;5092413;28;20195;-60
2022/07/14 04:26:46;;;;;;;7.00;5.20;;;;;;;23.90;93.33;152047.84;5092104;28;20195;-60
2022/07/14 04:29:13;;;;;;;9.63;5.80;;;;;;;24.06;89.29;152089.97;5091020;28;20626;-58
2022/07/14 04:31:40;;;;;;;10.60;4.85;;;;;;;24.20;86.28;152124.50;5091846;28;20222;-59
2022/07/14 04:34:07;;;;;;;13.23;5.60;;;;;;;24.33;84.73;152157.69;5092186;28;20211;-60
2022/07/14 04:36:34;;;;;;;12.55;4.63;;;;;;;24.12;85.11;152105.31;5092146;28;20573;-60
2022/07/14 04:39:01;;;;;;;14.77;5.43;;;;;;;24.23;83.98;152130.91;5091785;28;20184;-59
2022/07/14 04:41:27;;;;;;;13.40;6.03;;;;;;;24.53;80.67;152208.75;5091944;28;20551;-60
2022/07/14 04:43:56;;;;;;;15.20;5.07;;;;;;;24.71;78.00;152252.19;5092070;28;20619;-59
2022/07/14 04:46:23;;;;;;;18.38;5.47;;;;;;;24.80;76.99;152275.19;5091947;28;20261;-59
2022/07/14 04:54:18;;;;;;;11.38;5.30;;;;;;;25.32;73.80;152406.81;5091839;28;20289;-60
2022/07/14 04:56:45;;;;;;;9.43;4.80;;;;;;;25.25;75.39;152390.19;5091932;28;20184;-60
2022/07/14 04:59:14;;;;;;;7.03;4.93;;;;;;;25.16;77.39;152367.22;5091940;28;20661;-59
2022/07/14 05:01:41;;;;;;;9.73;5.13;;;;;;;25.38;74.12;152422.13;5091050;28;20271;-59
2022/07/14 05:04:08;;;;;;;13.07;5.28;;;;;;;25.24;77.36;152387.69;5091769;28;20184;-59
2022/07/14 05:06:35;;;;;;;9.82;5.15;;;;;;;25.22;79.98;152381.25;5091542;28;20184;-60
2022/07/14 05:09:02;;;;;;;5.72;5.28;;;;;;;25.34;81.46;152411.91;5091649;28;20184;-60
2022/07/14 05:11:30;;;;;;;6.40;5.50;;;;;;;25.39;80.48;152424.69;5091181;28;20320;-60
2022/07/14 05:13:57;;;;;;;9.48;5.40;;;;;;;25.57;78.22;152470.75;5091566;28;20301;-59
2022/07/14 05:16:25;;;;;;;16.90;5.43;;;;;;;25.52;78.52;152457.94;5091684;28;20181;-60
2022/07/14 05:18:52;;;;;;;10.18;5.90;;;;;;;25.65;79.45;152491.22;5091839;28;20635;-59
2022/07/14 05:21:19;;;;;;;8.90;6.32;;;;;;;25.77;79.75;152521.88;5092110;28;20188;-60
2022/07/14 05:23:46;;;;;;;9.77;5.30;;;;;;;25.67;78.95;152496.34;5095523;28;20210;-60
2022/07/14 05:26:14;;;;;;;17.98;5.63;;;;;;;25.73;80.37;152511.66;5095465;28;20504;-60
2022/07/14 05:28:41;;;;;;;10.55;5.85;;;;;;;25.76;80.29;152518.03;5095608;28;20188;-59
2022/07/14 05:31:08;;;;;;;13.27;5.43;;;;;;;25.43;81.23;152436.19;5095677;28;20803;-60
2022/07/14 05:33:36;;;;;;;10.93;5.47;;;;;;;25.63;82.17;152484.84;5094917;28;20192;-60
2022/07/14 05:36:04;;;;;;;7.05;5.82;;;;;;;25.78;78.81;152523.16;5095005;28;20194;-60
2022/07/14 05:38:32;;;;;;;6.93;6.20;;;;;;;26.02;78.06;152583.22;5095124;28;20226;-60
2022/07/14 05:41:01;;;;;;;10.10;5.97;;;;;;;26.02;76.90;152584.50;5094842;28;20192;-59
2022/07/14 05:43:28;;;;;;;8.55;5.70;;;;;;;26.52;75.96;152709.88;5094757;28;20180;-60
2022/07/14 05:45:55;;;;;;;9.38;5.97;;;;;;;26.62;75.13;152736.69;5094974;28;20649;-60
2022/07/14 05:48:22;;;;;;;15.85;6.47;;;;;;;26.72;73.80;152762.28;5095237;28;20192;-59
2022/07/14 05:50:50;;;;;;;7.28;6.57;;;;;;;27.04;71.63;152841.59;5094869;28;20564;-60
2022/07/14 05:53:17;;;;;;;7.25;6.75;;;;;;;27.34;70.73;152917.06;5095344;28;20622;-59
2022/07/14 05:55:45;;;;;;;7.20;6.43;;;;;;;27.68;69.55;153005.44;5094579;28;20203;-59
2022/07/14 05:58:13;;;;;;;9.93;6.75;;;;;;;27.99;67.31;153082.22;5094597;28;20196;-60
2022/07/14 06:00:39;;;;;;;12.93;7.00;;;;;;;28.27;65.32;153153.94;5093361;28;20272;-60
2022/07/14 06:03:06;;;;;;;10.32;6.25;;;;;;;28.52;62.23;153217.94;5094527;28;20263;-60
2022/07/14 06:05:34;;;;;;;5.38;5.07;;;;;;;28.50;60.25;153212.84;5094503;28;20195;-59
2022/07/14 06:08:03;;;;;;;6.78;5.60;;;;;;;28.45;62.00;153198.75;5090340;28;20193;-61
2022/07/14 06:10:29;;;;;;;8.10;5.82;;;;;;;28.54;60.61;153223.09;5073961;28;20611;-60
2022/07/14 06:12:56;;;;;;;6.25;5.70;;;;;;;28.33;62.18;153169.31;5073763;28;20204;-60
2022/07/14 06:15:23;;;;;;;12.63;5.03;;;;;;;28.57;62.06;153229.47;5073820;28;20193;-61
2022/07/14 06:17:50;;;;;;;7.18;4.25;;;;;;;28.94;60.62;153324.25;5073694;28;20687;-59
2022/07/14 06:20:17;;;;;;;6.15;4.03;;;;;;;29.60;57.31;153489.56;5073428;28;20191;-62
2022/07/14 06:22:44;;;;;;;6.97;4.40;;;;;;;29.86;55.07;153557.47;5073463;28;20188;-59
2022/07/14 06:25:13;;;;;;;6.18;3.20;;;;;;;29.90;52.84;153566.50;5073035;28;20191;-61
2022/07/14 06:27:40;;;;;;;10.88;3.42;;;;;;;30.68;51.84;153763.94;5075731;28;20697;-60
2022/07/14 06:30:08;;;;;;;7.80;2.45;;;;;;;31.12;48.36;153876.78;5085794;28;20286;-60
2022/07/14 06:32:38;;;;;;;9.32;2.75;;;;;;;30.95;47.94;153833.13;5080050;28;20679;-60
2022/07/14 06:35:06;;;;;;;4.25;2.22;;;;;;;31.64;46.36;154008.94;5104893;27;20200;-60
2022/07/14 06:37:34;;;;;;;36.85;5.68;;;;;;;31.75;44.98;154035.84;5080554;28;20203;-61
2022/07/14 06:40:04;;;;;;;5.93;2.80;;;;;;;32.18;44.45;154144.97;5080617;28;20230;-59
2022/07/14 06:42:32;;;;;;;6.13;2.33;;;;;;;31.82;44.47;154053.84;5072269;28;20185;-60
2022/07/14 06:44:59;;;;;;;6.30;2.08;;;;;;;31.10;46.18;153871.69;5073764;28;20548;-60
2022/07/14 06:47:26;;;;;;;4.32;2.28;;;;;;;31.69;46.66;154020.50;5088862;28;20283;-60
2022/07/14 06:49:53;;;;;;;10.05;2.30;;;;;;;32.78;43.92;154297.72;5078207;28;20207;-59
2022/07/14 06:52:20;;;;;;;2.85;2.35;;;;;;;32.80;43.24;154302.88;5093789;28;20727;-60
2022/07/14 06:54:47;;;;;;;4.75;1.60;;;;;;;33.33;41.51;154437.72;5079652;28;20204;-60
2022/07/14 06:57:19;;;;;;;9.05;4.20;;;;;;;33.64;43.21;154516.03;5073390;28;20563;-59
2022/07/14 06:59:47;;;;;;;15.90;4.40;;;;;;;33.23;43.54;154412.00;5076697;28;20250;-60
2022/07/14 07:02:14;;;;;;;12.55;3.47;;;;;;;33.08;43.49;154374.75;5081438;28;20197;-59
2022/07/14 07:04:45;;;;;;;10.32;3.78;;;;;;;33.08;43.55;154374.75;5079778;28;20203;-59
2022/07/14 07:07:11;;;;;;;12.52;3.10;;;;;;;32.42;44.84;154206.53;5089268;28;20204;-60
2022/07/14 07:09:37;;;;;;;4.20;2.28;;;;;;;31.93;45.14;154082.06;5092076;28;20199;-60
2022/07/14 07:12:05;;;;;;;8.07;3.97;;;;;;;31.68;46.70;154019.19;5092266;28;20212;-60
2022/07/14 07:14:32;;;;;;;18.80;3.97;;;;;;;31.29;48.34;153919.09;5093578;28;20192;-59
2022/07/14 07:17:01;;;;;;;11.85;3.88;;;;;;;31.34;47.43;153930.66;5093429;28;20646;-61
2022/07/14 07:19:33;;;;;;;4.55;3.80;;;;;;;31.60;47.71;153997.41;5093258;28;20269;-59
2022/07/14 07:22:05;;;;;;;8.52;3.55;;;;;;;31.80;48.20;154047.41;5088750;28;20254;-61
2022/07/14 07:24:32;;;;;;;7.45;3.38;;;;;;;31.45;48.33;153958.84;5088751;28;20208;-65
2022/07/14 07:26:59;;;;;;;4.32;3.10;;;;;;;31.54;47.56;153981.94;5085720;28;20203;-64
2022/07/14 07:29:26;;;;;;;4.97;2.80;;;;;;;31.69;46.67;154020.50;5085061;28;20682;-64
2022/07/14 07:31:53;;;;;;;10.48;3.03;;;;;;;31.84;47.96;154058.94;5073060;28;20586;-64
2022/07/14 07:34:21;;;;;;;8.10;3.13;;;;;;;31.87;46.64;154065.41;5074478;28;20214;-64
2022/07/14 07:36:49;;;;;;;7.75;2.90;;;;;;;32.05;48.34;154112.84;5085026;28;20297;-64
2022/07/14 07:39:16;;;;;;;8.18;3.30;;;;;;;32.17;46.49;154143.69;5072928;28;20281;-64
2022/07/14 07:41:43;;;;;;;7.72;2.80;;;;;;;32.34;45.29;154186.00;5072920;28;20280;-64
2022/07/14 07:44:09;;;;;;;9.35;3.10;;;;;;;32.52;45.27;154230.94;5081156;28;20214;-63
2022/07/14 07:46:36;;;;;;;10.73;2.97;;;;;;;32.05;45.15;154112.84;5092680;28;20188;-64
2022/07/14 07:49:03;;;;;;;4.63;2.92;;;;;;;30.75;46.59;153783.16;5092914;28;20202;-64
2022/07/14 07:51:31;;;;;;;10.27;5.40;;;;;;;30.82;47.04;153801.09;5092294;28;20192;-67
2022/07/14 07:53:58;;;;;;;16.20;3.00;;;;;;;30.97;47.12;153837.00;5089919;28;20183;-67
2022/07/14 07:56:25;;;;;;;4.70;3.30;;;;;;;31.08;46.53;153866.53;5072704;28;20697;-68
2022/07/14 07:58:52;;;;;;;0.60;0.60;;;;;;;31.48;38.74;153966.56;5072705;28;20204;-67
2022/07/14 08:01:19;;;;;;;2.35;0.80;;;;;;;31.88;36.40;154067.91;5072691;28;20181;-64
2022/07/14 08:03:46;;;;;;;9.90;0.90;;;;;;;32.20;36.20;154148.81;5073164;28;20623;-65
2022/07/14 08:06:13;;;;;;;3.60;0.80;;;;;;;32.43;37.05;154209.13;5072604;28;20264;-65
2022/07/14 08:08:41;;;;;;;1.42;1.23;;;;;;;32.67;37.31;154269.50;5072503;28;20242;-64
2022/07/14 08:11:08;;;;;;;2.30;0.90;;;;;;;33.17;36.98;154396.63;5071822;28;20236;-64
2022/07/14 08:13:35;;;;;;;1.80;0.80;;;;;;;33.59;34.95;154503.19;5071962;28;20243;-64
2022/07/14 08:16:04;;;;;;;0.80;0.80;;;;;;;34.10;33.51;154632.97;5072779;28;20694;-64
2022/07/14 08:18:31;;;;;;;0.80;0.80;;;;;;;34.37;33.07;154701.13;5072134;28;20585;-64
2022/07/14 08:21:11;;;;;;;2.90;0.90;;;;;;;34.85;33.53;154824.47;5071976;28;20199;-63
2022/07/14 08:23:51;;;;;;;4.47;1.00;;;;;;;34.44;33.06;154719.06;5089642;28;20204;-64
2022/07/14 08:26:21;;;;;;;4.18;1.00;;;;;;;33.99;33.81;154604.72;5086518;28;20286;-64
2022/07/14 08:28:48;;;;;;;2.33;0.70;;;;;;;34.08;33.74;154626.50;5092055;28;20196;-65
2022/07/14 08:31:15;;;;;;;1.35;0.80;;;;;;;33.97;33.88;154599.56;5080090;28;20215;-64
2022/07/14 08:33:42;;;;;;;1.67;0.73;;;;;;;33.91;34.81;154584.13;5071678;28;20291;-64
2022/07/14 08:36:09;;;;;;;1.10;0.52;;;;;;;33.93;33.78;154589.28;5072116;28;20187;-64
2022/07/14 08:38:36;;;;;;;1.20;1.10;;;;;;;33.69;35.43;154528.94;5072155;28;20590;-64
2022/07/14 08:41:04;;;;;;;0.60;0.60;;;;;;;33.80;33.62;154557.19;5071597;28;20277;-64
2022/07/14 08:43:32;;;;;;;2.72;0.93;;;;;;;33.90;33.68;154581.59;5070443;28;20196;-64
2022/07/14 08:46:00;;;;;;;1.17;0.88;;;;;;;34.11;34.98;154635.53;5071623;28;20204;-65
2022/07/14 08:48:27;;;;;;;0.70;0.63;;;;;;;34.37;34.57;154701.13;5071576;28;20189;-64
2022/07/14 08:50:54;;;;;;;2.72;0.75;;;;;;;34.55;34.12;154747.31;5071487;28;20191;-64
2022/07/14 08:53:21;;;;;;;1.02;0.63;;;;;;;34.40;32.86;154708.81;5082442;28;20295;-64
2022/07/14 08:55:49;;;;;;;1.60;0.80;;;;;;;34.19;32.91;154654.84;5091607;28;20275;-64
2022/07/14 08:58:17;;;;;;;0.90;0.70;;;;;;;34.09;33.84;154629.09;5095545;28;20231;-65
2022/07/14 09:00:44;;;;;;;1.33;0.60;;;;;;;34.28;33.35;154677.97;5094489;28;20336;-64
2022/07/14 09:03:11;;;;;;;0.88;0.70;;;;;;;34.48;33.46;154729.34;5095677;28;20602;-63
2022/07/14 09:05:41;;;;;;;0.60;0.60;;;;;;;34.65;33.48;154773.09;5084694;28;20207;-64
2022/07/14 09:08:08;;;;;;;0.80;0.80;;;;;;;34.15;33.22;154645.81;5078495;28;20199;-63
2022/07/14 09:10:35;;;;;;;1.88;0.98;;;;;;;33.69;33.66;154528.94;5092148;28;20288;-64
2022/07/14 09:13:21;;;;;;;1.98;0.80;;;;;;;33.45;33.31;154468.53;5094060;28;20287;-64
2022/07/14 09:15:54;;;;;;;3.50;0.80;;;;;;;32.81;34.19;154305.41;5094039;28;20565;-63
2022/07/14 09:18:23;;;;;;;2.13;0.90;;;;;;;32.71;34.91;154278.50;5081960;28;20253;-64
2022/07/14 09:20:51;;;;;;;2.55;0.70;;;;;;;33.05;35.44;154367.06;5088431;28;20655;-65
2022/07/14 09:23:27;;;;;;;0.70;0.70;;;;;;;32.66;34.87;154266.94;5095157;28;20200;-64
2022/07/14 09:26:10;;;;;;;0.98;0.77;;;;;;;32.92;34.90;154332.41;5095635;28;20187;-64
2022/07/14 09:28:41;;;;;;;1.77;0.77;;;;;;;33.06;34.53;154369.59;5083560;28;20204;-65
2022/07/14 09:31:22;;;;;;;2.45;0.98;;;;;;;33.22;34.46;154409.47;5082467;28;20200;-66
2022/07/14 09:33:50;;;;;;;1.00;0.90;;;;;;;32.96;35.02;154343.97;5095307;28;20295;-66
2022/07/14 09:36:26;;;;;;;0.95;0.70;;;;;;;32.84;34.74;154313.16;5095136;28;20619;-66
2022/07/14 09:38:57;;;;;;;4.32;0.93;;;;;;;32.55;35.39;154239.91;5094856;28;20249;-65
2022/07/14 09:41:26;;;;;;;0.68;0.68;;;;;;;33.43;34.88;154462.13;5090600;28;20602;-65
2022/07/14 09:44:14;;;;;;;0.65;0.65;;;;;;;34.40;33.58;154710.09;5083350;28;20199;-65
2022/07/14 09:46:50;;;;;;;2.15;0.80;;;;;;;35.11;33.44;154888.72;5095135;28;20215;-65
2022/07/14 09:49:19;;;;;;;5.05;0.80;;;;;;;35.28;32.11;154932.47;5094919;28;20279;-65
2022/07/14 09:51:57;;;;;;;3.17;0.80;;;;;;;34.83;32.97;154819.34;5094658;28;20520;-65
2022/07/14 09:54:50;;;;;;;7.43;1.35;;;;;;;34.33;32.94;154692.06;5094468;28;20204;-65
2022/07/14 09:57:25;;;;;;;0.95;0.93;;;;;;;33.73;33.35;154539.22;5084629;28;20196;-61
2022/07/14 10:00:01;;;;;;;1.38;0.90;;;;;;;33.29;33.14;154426.16;5094599;28;20180;-61
2022/07/14 10:02:30;;;;;;;1.30;0.63;;;;;;;32.78;33.80;154296.44;5093413;28;20180;-61
2022/07/14 10:05:01;;;;;;;1.98;0.80;;;;;;;33.32;33.16;154435.13;5094989;28;20196;-61
2022/07/14 10:07:30;;;;;;;2.05;1.52;;;;;;;33.49;35.40;154477.50;5084562;28;20209;-61
2022/07/14 10:10:05;;;;;;;3.60;0.90;;;;;;;33.51;34.36;154482.66;5075994;28;20228;-61
2022/07/14 10:12:32;;;;;;;5.10;1.10;;;;;;;33.27;34.46;154421.03;5093225;28;20219;-61
2022/07/14 10:15:03;;;;;;;0.85;0.85;;;;;;;33.22;34.17;154408.19;5094501;28;20188;-61
2022/07/14 10:17:31;;;;;;;1.95;1.40;;;;;;;33.43;36.11;154462.13;5094445;28;20271;-62
2022/07/14 10:19:58;;;;;;;1.50;1.40;;;;;;;33.00;35.80;154354.22;5093698;28;20267;-62
2022/07/14 10:22:26;;;;;;;4.63;1.50;;;;;;;33.24;35.31;154413.31;5092786;28;20188;-61
2022/07/14 10:24:54;;;;;;;2.05;1.05;;;;;;;32.97;35.75;154345.25;5093933;28;20653;-61
2022/07/14 10:27:21;;;;;;;2.25;1.33;;;;;;;33.14;36.22;154388.94;5091526;28;20206;-60
2022/07/14 10:30:08;;;;;;;3.80;1.33;;;;;;;33.28;35.58;154424.84;5083032;28;20552;-61
2022/07/14 10:32:40;;;;;;;1.00;1.00;;;;;;;32.92;35.10;154332.41;5085130;28;20678;-60
2022/07/14 10:35:20;;;;;;;1.30;1.20;;;;;;;32.43;35.69;154209.13;5081961;28;20622;-62
2022/07/14 10:38:08;;;;;;;1.02;1.00;;;;;;;32.55;36.63;154238.63;5073442;28;20288;-62
2022/07/14 10:40:46;;;;;;;18.73;1.83;;;;;;;32.87;35.35;154320.84;5074225;28;20207;-61
2022/07/14 10:43:17;;;;;;;2.50;1.45;;;;;;;32.88;35.10;154323.44;5074322;28;20219;-62
2022/07/14 10:45:49;;;;;;;1.88;1.30;;;;;;;32.87;35.47;154320.84;5104818;28;20291;-61
2022/07/14 10:48:29;;;;;;;1.10;1.00;;;;;;;32.88;35.24;154322.13;5085259;28;20238;-61
2022/07/14 10:51:34;;;;;;;1.45;1.30;;;;;;;32.94;35.30;154338.78;5073526;28;20184;-60
2022/07/14 10:54:08;;;;;;;2.17;1.17;;;;;;;32.68;35.58;154270.75;5072286;28;20307;-61
2022/07/14 10:56:36;;;;;;;0.85;0.85;;;;;;;32.20;35.84;154148.81;5073367;28;20578;-62
2022/07/14 10:59:30;;;;;;;1.63;1.38;;;;;;;31.98;36.14;154093.59;5091404;28;20226;-61
2022/07/14 11:02:38;;;;;;;0.80;0.80;;;;;;;31.60;37.06;153998.69;5082943;28;20208;-61
2022/07/14 11:05:14;;;;;;;2.10;1.00;;;;;;;31.34;37.66;153930.66;5093139;28;20234;-61
2022/07/14 11:07:47;;;;;;;2.58;1.00;;;;;;;31.28;37.41;153917.81;5093697;28;20187;-62
2022/07/14 11:11:11;;;;;;;1.60;1.50;;;;;;;31.20;38.12;153897.28;5093186;28;20694;-61
2022/07/14 11:14:12;;;;;;;4.07;1.08;;;;;;;31.37;38.22;153939.63;5087282;28;20222;-61
2022/07/14 11:16:58;;;;;;;7.03;1.70;;;;;;;31.39;37.71;153943.47;5085656;28;20210;-62
2022/07/14 11:19:31;;;;;;;2.33;1.15;;;;;;;31.52;38.09;153978.13;5092609;28;20676;-62
2022/07/14 11:22:19;;;;;;;1.33;1.20;;;;;;;31.55;37.65;153984.56;5093021;28;20261;-62
2022/07/14 11:24:51;;;;;;;1.92;1.00;;;;;;;31.58;37.05;153993.53;5093138;28;20635;-62
2022/07/14 11:27:43;;;;;;;3.00;1.20;;;;;;;31.60;37.50;153997.41;5093224;28;20192;-61
2022/07/14 11:30:28;;;;;;;4.47;1.08;;;;;;;31.58;37.84;153993.53;5092949;28;20214;-61
2022/07/14 11:33:01;;;;;;;8.10;1.17;;;;;;;31.69;36.90;154020.50;5092767;28;20599;-62
2022/07/14 11:36:20;;;;;;;1.00;0.90;;;;;;;31.63;37.62;154006.38;5089264;28;20196;-61
2022/07/14 11:38:48;;;;;;;1.83;0.93;;;;;;;31.60;37.37;153998.69;5092640;28;20188;-61
2022/07/14 11:41:45;;;;;;;3.10;1.23;;;;;;;31.72;37.14;154029.47;5090182;28;20188;-61